createdAt,value
2022-10-24T00:00:01.949Z,11.9
2022-10-24T00:01:01.811Z,11.9
2022-10-24T00:02:01.585Z,11.9
2022-10-24T00:03:01.638Z,12
2022-10-24T00:04:01.687Z,12
2022-10-24T00:05:01.795Z,12
2022-10-24T00:06:01.811Z,12
2022-10-24T00:07:01.651Z,12
2022-10-24T00:08:01.705Z,11.9
2022-10-24T00:09:01.498Z,11.9
2022-10-24T00:10:01.520Z,11.9
2022-10-24T00:11:01.389Z,12
2022-10-24T00:12:02.398Z,11.9
2022-10-24T00:13:02.233Z,11.9
2022-10-24T00:14:02.323Z,11.9
2022-10-24T00:15:02.171Z,11.9
2022-10-24T00:16:02.170Z,11.8
2022-10-24T00:17:02.074Z,11.9
2022-10-24T00:18:02.012Z,12
2022-10-24T00:19:02.067Z,11.9
2022-10-24T00:20:01.907Z,11.9
2022-10-24T00:21:01.845Z,12
2022-10-24T00:22:01.891Z,11.9
2022-10-24T00:23:01.698Z,11.9
2022-10-24T00:24:01.723Z,11.9
2022-10-24T00:25:01.529Z,11.9
2022-10-24T00:26:01.587Z,12
2022-10-24T00:27:01.701Z,11.9
2022-10-24T00:28:01.734Z,11.9
2022-10-24T00:30:01.515Z,11.8
2022-10-24T00:31:01.375Z,11.9
2022-10-24T00:32:01.359Z,11.9
2022-10-24T00:33:02.367Z,11.9
2022-10-24T00:34:02.203Z,11.9
2022-10-24T00:35:02.238Z,11.8
2022-10-24T00:36:02.073Z,11.8
2022-10-24T00:37:02.189Z,11.9
2022-10-24T00:38:02.043Z,11.8
2022-10-24T00:39:02.460Z,11.8
2022-10-24T00:40:02.417Z,11.9
2022-10-24T00:41:01.337Z,11.9
2022-10-24T00:42:02.383Z,11.9
2022-10-24T00:43:02.223Z,11.8
2022-10-24T00:44:02.273Z,11.8
2022-10-24T00:45:02.210Z,11.9
2022-10-24T00:46:02.203Z,11.8
2022-10-24T00:47:01.967Z,11.7
2022-10-24T00:48:02.010Z,11.8
2022-10-24T00:49:01.859Z,11.8
2022-10-24T00:50:01.783Z,12
2022-10-24T00:51:01.811Z,12
2022-10-24T00:52:01.618Z,12
2022-10-24T00:53:01.640Z,12.1
2022-10-24T00:54:01.492Z,12.1
2022-10-24T00:55:01.639Z,12.1
2022-10-24T00:56:01.455Z,12.1
2022-10-24T00:57:01.486Z,12.1
2022-10-24T00:58:02.426Z,12.2
2022-10-24T00:59:02.274Z,12.2
2022-10-24T01:00:02.342Z,12.2
2022-10-24T01:01:02.258Z,12.1
2022-10-24T01:02:01.726Z,12.1
2022-10-24T01:03:01.900Z,12.1
2022-10-24T01:04:01.742Z,12
2022-10-24T01:05:01.655Z,12.1
2022-10-24T01:06:01.642Z,12.1
2022-10-24T01:07:01.450Z,12
2022-10-24T01:08:01.495Z,12.1
2022-10-24T01:09:01.347Z,12.1
2022-10-24T01:10:02.552Z,12
2022-10-24T01:11:01.365Z,12.1
2022-10-24T01:12:02.400Z,12
2022-10-24T01:13:02.271Z,12.1
2022-10-24T01:14:02.285Z,12.1
2022-10-24T01:15:02.150Z,12.1
2022-10-24T01:16:02.189Z,12.1
2022-10-24T01:17:02.016Z,12.1
2022-10-24T01:18:01.932Z,12.1
2022-10-24T01:19:01.941Z,12.1
2022-10-24T01:20:01.929Z,12.1
2022-10-24T01:21:01.872Z,12.1
2022-10-24T01:22:01.853Z,12.1
2022-10-24T01:23:01.641Z,12.1
2022-10-24T01:24:01.665Z,12
2022-10-24T01:25:01.568Z,12
2022-10-24T01:26:01.460Z,12
2022-10-24T01:27:01.409Z,12
2022-10-24T01:28:01.500Z,12
2022-10-24T01:29:02.414Z,12.1
2022-10-24T01:30:02.447Z,12.1
2022-10-24T01:31:02.327Z,12.1
2022-10-24T01:32:02.179Z,12.1
2022-10-24T01:33:02.226Z,12
2022-10-24T01:34:02.061Z,12.1
2022-10-24T01:35:02.075Z,12.1
2022-10-24T01:36:02.087Z,12.1
2022-10-24T01:37:02.053Z,12
2022-10-24T01:38:02.132Z,11.9
2022-10-24T01:39:01.982Z,12
2022-10-24T01:40:01.938Z,12
2022-10-24T01:41:02.064Z,12
2022-10-24T01:42:01.847Z,11.9
2022-10-24T01:43:01.747Z,12
2022-10-24T01:44:01.794Z,11.9
2022-10-24T01:45:01.641Z,11.9
2022-10-24T01:46:01.653Z,12
2022-10-24T01:47:01.409Z,12
2022-10-24T01:48:01.446Z,12
2022-10-24T01:49:02.411Z,12
2022-10-24T01:50:02.271Z,12.1
2022-10-24T01:51:02.345Z,12
2022-10-24T01:52:02.312Z,12.1
2022-10-24T01:53:01.439Z,12.1
2022-10-24T01:54:01.342Z,12.1
2022-10-24T01:55:02.369Z,12.1
2022-10-24T01:56:02.221Z,12.1
2022-10-24T01:57:02.281Z,12.1
2022-10-24T01:58:02.148Z,12
2022-10-24T01:59:02.199Z,12
2022-10-24T02:00:02.068Z,12
2022-10-24T02:01:02.219Z,12.1
2022-10-24T02:02:01.940Z,12.1
2022-10-24T02:03:01.895Z,12.1
2022-10-24T02:04:01.936Z,12
2022-10-24T02:05:01.728Z,12
2022-10-24T02:06:01.629Z,12
2022-10-24T02:07:01.623Z,12.1
2022-10-24T02:08:01.428Z,12.1
2022-10-24T02:09:01.517Z,12.1
2022-10-24T02:10:01.554Z,12
2022-10-24T02:11:01.560Z,12
2022-10-24T02:12:01.418Z,12
2022-10-24T02:13:01.458Z,12.1
2022-10-24T02:14:02.378Z,12
2022-10-24T02:15:02.239Z,12.1
2022-10-24T02:16:02.350Z,12
2022-10-24T02:17:01.978Z,12
2022-10-24T02:18:01.970Z,11.9
2022-10-24T02:19:01.824Z,12
2022-10-24T02:20:01.874Z,12
2022-10-24T02:21:01.741Z,12
2022-10-24T02:22:01.660Z,12
2022-10-24T02:23:01.661Z,12
2022-10-24T02:24:01.498Z,12
2022-10-24T02:25:01.542Z,12
2022-10-24T02:26:01.555Z,12
2022-10-24T02:27:01.360Z,12
2022-10-24T02:28:02.373Z,12.1
2022-10-24T02:29:02.219Z,12.1
2022-10-24T02:30:02.246Z,12
2022-10-24T02:31:02.104Z,12
2022-10-24T02:32:02.020Z,12.1
2022-10-24T02:33:02.013Z,12.1
2022-10-24T02:34:01.904Z,12.2
2022-10-24T02:35:02.001Z,12.1
2022-10-24T02:36:02.039Z,12.2
2022-10-24T02:37:01.894Z,12.2
2022-10-24T02:38:01.786Z,12.2
2022-10-24T02:39:01.775Z,12.2
2022-10-24T02:40:01.570Z,12.1
2022-10-24T02:41:01.587Z,12.2
2022-10-24T02:42:01.381Z,12.1
2022-10-24T02:43:01.396Z,12
2022-10-24T02:44:02.358Z,11.8
2022-10-24T02:45:02.201Z,11.8
2022-10-24T02:46:02.246Z,11.7
2022-10-24T02:47:02.119Z,11.7
2022-10-24T02:48:02.163Z,11.7
2022-10-24T02:49:01.964Z,11.7
2022-10-24T02:50:01.899Z,11.8
2022-10-24T02:51:01.953Z,11.8
2022-10-24T02:52:01.792Z,11.8
2022-10-24T02:53:01.732Z,11.8
2022-10-24T02:54:01.739Z,11.8
2022-10-24T02:55:01.528Z,11.8
2022-10-24T02:56:01.533Z,11.9
2022-10-24T02:57:01.364Z,11.8
2022-10-24T02:58:02.422Z,11.8
2022-10-24T02:59:02.413Z,11.9
2022-10-24T03:00:01.425Z,11.9
2022-10-24T03:01:01.407Z,11.9
2022-10-24T03:02:01.642Z,11.9
2022-10-24T03:03:01.660Z,12
2022-10-24T03:04:01.434Z,12
2022-10-24T03:05:01.477Z,12
2022-10-24T03:06:01.317Z,12
2022-10-24T03:07:02.372Z,12
2022-10-24T03:08:02.242Z,12.1
2022-10-24T03:09:02.277Z,12.1
2022-10-24T03:10:02.094Z,12.1
2022-10-24T03:11:02.083Z,12.2
2022-10-24T03:12:01.970Z,12.2
2022-10-24T03:13:01.852Z,12.2
2022-10-24T03:14:01.839Z,12.3
2022-10-24T03:15:01.694Z,12.2
2022-10-24T03:16:01.678Z,12.3
2022-10-24T03:17:01.542Z,12.2
2022-10-24T03:18:01.625Z,12.3
2022-10-24T03:19:01.409Z,12.3
2022-10-24T03:20:01.443Z,12.3
2022-10-24T03:21:02.377Z,12.3
2022-10-24T03:22:02.218Z,12.3
2022-10-24T03:23:02.284Z,12.3
2022-10-24T03:24:02.182Z,12.3
2022-10-24T03:25:02.357Z,12.3
2022-10-24T03:26:02.139Z,12.3
2022-10-24T03:27:02.182Z,12.3
2022-10-24T03:28:02.021Z,12.3
2022-10-24T03:29:01.954Z,12.3
2022-10-24T03:30:01.957Z,12.4
2022-10-24T03:31:01.781Z,12.3
2022-10-24T03:32:01.749Z,12.4
2022-10-24T03:33:01.747Z,12.3
2022-10-24T03:34:01.572Z,12.3
2022-10-24T03:35:01.601Z,12.3
2022-10-24T03:36:01.419Z,12.2
2022-10-24T03:37:01.461Z,12.2
2022-10-24T03:38:02.379Z,12.2
2022-10-24T03:39:02.223Z,12.3
2022-10-24T03:40:02.264Z,12.3
2022-10-24T03:41:02.106Z,12.3
2022-10-24T03:42:02.477Z,12.4
2022-10-24T03:43:02.294Z,12.4
2022-10-24T03:44:02.335Z,12.4
2022-10-24T03:45:02.162Z,12.4
2022-10-24T03:46:02.169Z,12.4
2022-10-24T03:47:02.006Z,12.4
2022-10-24T03:48:01.881Z,12.5
2022-10-24T03:50:01.664Z,12.5
2022-10-24T03:51:01.612Z,12.5
2022-10-24T03:52:01.440Z,12.5
2022-10-24T03:53:01.466Z,12.5
2022-10-24T03:54:01.326Z,12.5
2022-10-24T03:55:02.371Z,12.5
2022-10-24T03:56:02.207Z,12.5
2022-10-24T03:57:02.607Z,12.5
2022-10-24T03:58:01.419Z,12.6
2022-10-24T03:59:01.468Z,12.5
2022-10-24T04:00:02.435Z,12.5
2022-10-24T04:01:02.370Z,12.5
2022-10-24T04:02:01.684Z,12.5
2022-10-24T04:03:01.745Z,12.5
2022-10-24T04:04:01.529Z,12.5
2022-10-24T04:05:01.523Z,12.6
2022-10-24T04:06:01.370Z,12.6
2022-10-24T04:07:02.420Z,12.6
2022-10-24T04:08:02.253Z,12.6
2022-10-24T04:09:02.275Z,12.6
2022-10-24T04:10:02.085Z,12.6
2022-10-24T04:11:02.131Z,12.6
2022-10-24T04:12:01.917Z,12.6
2022-10-24T04:13:01.912Z,12.7
2022-10-24T04:15:03.875Z,12.7
2022-10-24T04:16:01.955Z,12.7
2022-10-24T04:17:01.602Z,12.7
2022-10-24T04:18:01.416Z,12.7
2022-10-24T04:19:01.430Z,12.8
2022-10-24T04:20:02.399Z,12.8
2022-10-24T04:21:02.237Z,12.8
2022-10-24T04:22:02.289Z,12.8
2022-10-24T04:23:03.650Z,12.8
2022-10-24T04:24:01.537Z,12.9
2022-10-24T04:25:01.547Z,12.9
2022-10-24T04:26:01.364Z,12.9
2022-10-24T04:27:01.452Z,12.9
2022-10-24T04:28:02.408Z,12.9
2022-10-24T04:29:02.227Z,13
2022-10-24T04:30:02.293Z,13
2022-10-24T04:31:02.124Z,13
2022-10-24T04:32:02.048Z,13
2022-10-24T04:33:02.126Z,13
2022-10-24T04:34:01.912Z,13
2022-10-24T04:35:01.815Z,13
2022-10-24T04:36:01.815Z,13.1
2022-10-24T04:37:01.648Z,13
2022-10-24T04:38:01.665Z,13.1
2022-10-24T04:39:01.547Z,13.1
2022-10-24T04:40:01.542Z,13.1
2022-10-24T04:41:01.385Z,13.1
2022-10-24T04:42:02.400Z,13.1
2022-10-24T04:43:02.221Z,13.2
2022-10-24T04:44:02.266Z,13.1
2022-10-24T04:45:02.119Z,13.2
2022-10-24T04:46:02.154Z,13.2
2022-10-24T04:47:01.867Z,13.2
2022-10-24T04:48:01.917Z,13.2
2022-10-24T04:49:01.944Z,13.3
2022-10-24T04:50:01.841Z,13.3
2022-10-24T04:51:01.807Z,13.3
2022-10-24T04:52:01.798Z,13.3
2022-10-24T04:53:01.636Z,13.2
2022-10-24T04:54:01.663Z,13.3
2022-10-24T04:55:01.430Z,13.2
2022-10-24T04:56:01.463Z,13.3
2022-10-24T04:57:02.357Z,13.3
2022-10-24T04:58:02.215Z,13.3
2022-10-24T04:59:02.274Z,13.3
2022-10-24T05:00:02.110Z,13.3
2022-10-24T05:01:02.176Z,13.4
2022-10-24T05:02:02.037Z,13.4
2022-10-24T05:03:02.138Z,13.4
2022-10-24T05:05:02.046Z,13.4
2022-10-24T05:06:01.908Z,13.4
2022-10-24T05:07:01.940Z,13.4
2022-10-24T05:08:01.772Z,13.4
2022-10-24T05:09:01.729Z,13.5
2022-10-24T05:10:01.788Z,13.5
2022-10-24T05:11:01.561Z,13.5
2022-10-24T05:12:01.693Z,13.5
2022-10-24T05:13:01.486Z,13.6
2022-10-24T05:14:01.491Z,13.6
2022-10-24T05:15:02.430Z,13.6
2022-10-24T05:16:02.305Z,13.6
2022-10-24T05:17:02.225Z,13.6
2022-10-24T05:18:02.265Z,13.7
2022-10-24T05:19:02.107Z,13.7
2022-10-24T05:20:02.115Z,13.7
2022-10-24T05:21:01.995Z,13.8
2022-10-24T05:22:02.566Z,13.8
2022-10-24T05:23:02.251Z,13.7
2022-10-24T05:24:02.281Z,13.8
2022-10-24T05:25:02.107Z,13.8
2022-10-24T05:26:02.157Z,13.8
2022-10-24T05:27:01.986Z,13.8
2022-10-24T05:28:01.982Z,13.8
2022-10-24T05:29:02.016Z,13.8
2022-10-24T05:30:02.075Z,13.9
2022-10-24T05:31:01.985Z,13.9
2022-10-24T05:32:01.856Z,13.9
2022-10-24T05:33:01.915Z,13.9
2022-10-24T05:34:01.715Z,13.9
2022-10-24T05:35:01.739Z,13.9
2022-10-24T05:36:01.511Z,14
2022-10-24T05:37:01.541Z,14
2022-10-24T05:38:01.367Z,14
2022-10-24T05:39:02.419Z,14
2022-10-24T05:40:02.250Z,14
2022-10-24T05:41:02.301Z,14
2022-10-24T05:42:02.125Z,14
2022-10-24T05:43:02.153Z,14
2022-10-24T05:44:01.969Z,14
2022-10-24T05:45:01.974Z,14.1
2022-10-24T05:46:01.927Z,14.1
2022-10-24T05:47:01.696Z,14.1
2022-10-24T05:48:01.727Z,14.1
2022-10-24T05:49:01.561Z,14.1
2022-10-24T05:50:01.724Z,14.1
2022-10-24T05:51:01.561Z,14.1
2022-10-24T05:52:01.552Z,14.1
2022-10-24T05:53:01.376Z,14.1
2022-10-24T05:54:02.445Z,14.1
2022-10-24T05:55:07.896Z,14.2
2022-10-24T05:56:01.445Z,14.2
2022-10-24T05:57:01.492Z,14.2
2022-10-24T05:58:02.418Z,14.2
2022-10-24T05:59:02.270Z,14.2
2022-10-24T06:00:02.346Z,14.2
2022-10-24T06:01:02.176Z,14.2
2022-10-24T06:02:01.472Z,14.2
2022-10-24T06:03:02.149Z,14.2
2022-10-24T06:04:01.992Z,14.2
2022-10-24T06:05:01.932Z,14.3
2022-10-24T06:06:01.937Z,14.2
2022-10-24T06:07:01.782Z,14.3
2022-10-24T06:08:01.747Z,14.3
2022-10-24T06:09:01.740Z,14.3
2022-10-24T06:10:01.532Z,14.3
2022-10-24T06:11:01.543Z,14.3
2022-10-24T06:12:01.370Z,14.3
2022-10-24T06:13:02.413Z,14.3
2022-10-24T06:14:02.303Z,14.4
2022-10-24T06:15:02.302Z,14.3
2022-10-24T06:16:02.145Z,14.3
2022-10-24T06:17:01.971Z,14.3
2022-10-24T06:18:02.021Z,14.3
2022-10-24T06:19:01.857Z,14.3
2022-10-24T06:20:01.790Z,14.4
2022-10-24T06:21:01.723Z,14.3
2022-10-24T06:22:01.545Z,14.3
2022-10-24T06:23:01.570Z,14.3
2022-10-24T06:24:01.402Z,14.2
2022-10-24T06:25:01.412Z,14.2
2022-10-24T06:26:02.358Z,14.3
2022-10-24T06:27:02.196Z,14.3
2022-10-24T06:28:02.277Z,14.3
2022-10-24T06:29:02.270Z,14.3
2022-10-24T06:30:02.261Z,14.2
2022-10-24T06:31:02.116Z,14.3
2022-10-24T06:32:02.073Z,14.3
2022-10-24T06:33:02.123Z,14.3
2022-10-24T06:34:01.938Z,14.3
2022-10-24T06:35:01.883Z,14.3
2022-10-24T06:36:01.940Z,14.3
2022-10-24T06:37:01.832Z,14.3
2022-10-24T06:38:01.751Z,14.3
2022-10-24T06:39:01.793Z,14.4
2022-10-24T06:40:01.624Z,14.4
2022-10-24T06:41:01.618Z,14.4
2022-10-24T06:42:01.397Z,14.4
2022-10-24T06:43:01.425Z,14.4
2022-10-24T06:44:02.733Z,14.3
2022-10-24T06:45:02.249Z,14.3
2022-10-24T06:46:02.261Z,14.4
2022-10-24T06:47:02.131Z,14.4
2022-10-24T06:48:02.166Z,14.4
2022-10-24T06:49:02.006Z,14.4
2022-10-24T06:50:01.951Z,14.5
2022-10-24T06:51:01.956Z,14.5
2022-10-24T06:52:01.740Z,14.5
2022-10-24T06:53:01.668Z,14.5
2022-10-24T06:54:01.714Z,14.5
2022-10-24T06:55:01.561Z,14.6
2022-10-24T06:56:01.551Z,14.6
2022-10-24T06:57:01.396Z,14.6
2022-10-24T06:58:01.434Z,14.7
2022-10-24T06:59:02.391Z,14.6
2022-10-24T07:00:02.236Z,14.6
2022-10-24T07:01:02.483Z,14.6
2022-10-24T07:02:03.212Z,14.6
2022-10-24T07:03:02.156Z,14.6
2022-10-24T07:04:02.189Z,14.7
2022-10-24T07:05:02.139Z,14.7
2022-10-24T07:06:01.967Z,14.6
2022-10-24T07:07:01.999Z,14.7
2022-10-24T07:08:01.842Z,14.7
2022-10-24T07:09:01.803Z,14.7
2022-10-24T07:10:01.828Z,14.7
2022-10-24T07:11:01.641Z,14.8
2022-10-24T07:12:01.639Z,14.8
2022-10-24T07:13:01.429Z,14.8
2022-10-24T07:14:02.630Z,14.8
2022-10-24T07:15:01.649Z,14.8
2022-10-24T07:16:01.666Z,14.9
2022-10-24T07:17:01.369Z,14.9
2022-10-24T07:18:02.415Z,14.9
2022-10-24T07:19:02.264Z,14.9
2022-10-24T07:20:02.304Z,15
2022-10-24T07:21:02.161Z,15
2022-10-24T07:22:02.171Z,15.1
2022-10-24T07:23:02.017Z,15.1
2022-10-24T07:24:01.990Z,15.2
2022-10-24T07:25:02.037Z,15.2
2022-10-24T07:26:01.896Z,15.3
2022-10-24T07:27:01.893Z,15.3
2022-10-24T07:28:01.775Z,15.4
2022-10-24T07:30:04.678Z,15.5
2022-10-24T07:31:01.763Z,15.4
2022-10-24T07:32:01.756Z,15.4
2022-10-24T07:33:01.598Z,15.5
2022-10-24T07:34:01.627Z,15.4
2022-10-24T07:35:01.421Z,15.4
2022-10-24T07:36:01.491Z,15.2
2022-10-24T07:37:01.373Z,15.3
2022-10-24T07:38:02.429Z,15.4
2022-10-24T07:39:02.246Z,15.4
2022-10-24T07:40:02.291Z,15.3
2022-10-24T07:41:02.132Z,15.4
2022-10-24T07:42:02.148Z,15.4
2022-10-24T07:43:01.989Z,15.5
2022-10-24T07:44:01.968Z,15.5
2022-10-24T07:45:01.993Z,15.5
2022-10-24T07:47:01.457Z,15.8
2022-10-24T07:48:01.477Z,15.7
2022-10-24T07:49:02.426Z,15.9
2022-10-24T07:50:02.287Z,15.8
2022-10-24T07:51:02.307Z,15.8
2022-10-24T07:52:02.122Z,15.8
2022-10-24T07:53:02.105Z,15.8
2022-10-24T07:54:01.968Z,15.9
2022-10-24T07:55:01.901Z,15.8
2022-10-24T07:56:01.893Z,15.7
2022-10-24T07:57:01.673Z,15.8
2022-10-24T07:58:01.655Z,15.8
2022-10-24T07:59:05.752Z,15.8
2022-10-24T08:00:01.448Z,15.8
2022-10-24T08:01:01.508Z,15.8
2022-10-24T08:02:01.456Z,15.7
2022-10-24T08:03:01.454Z,15.7
2022-10-24T08:04:01.332Z,15.7
2022-10-24T08:05:02.384Z,15.8
2022-10-24T08:06:02.385Z,15.8
2022-10-24T08:07:02.311Z,15.8
2022-10-24T08:08:19.963Z,15.7
2022-10-24T08:09:01.391Z,15.7
2022-10-24T08:10:02.411Z,15.7
2022-10-24T08:11:02.272Z,15.7
2022-10-24T08:12:02.303Z,15.8
2022-10-24T08:13:02.134Z,15.8
2022-10-24T08:14:02.178Z,15.7
2022-10-24T08:15:02.795Z,15.7
2022-10-24T08:16:01.684Z,15.7
2022-10-24T08:17:01.993Z,15.7
2022-10-24T08:18:02.077Z,15.8
2022-10-24T08:19:01.911Z,15.7
2022-10-24T08:20:01.842Z,15.8
2022-10-24T08:21:01.916Z,15.8
2022-10-24T08:22:01.734Z,15.7
2022-10-24T08:23:01.637Z,15.8
2022-10-24T08:24:01.661Z,15.9
2022-10-24T08:25:01.428Z,15.8
2022-10-24T08:26:01.480Z,15.9
2022-10-24T08:27:01.361Z,15.9
2022-10-24T08:28:03.917Z,15.8
2022-10-24T08:29:01.785Z,15.8
2022-10-24T08:30:01.842Z,15.9
2022-10-24T08:31:01.698Z,15.9
2022-10-24T08:32:01.697Z,15.9
2022-10-24T08:33:01.747Z,15.9
2022-10-24T08:34:01.511Z,15.9
2022-10-24T08:35:01.525Z,15.9
2022-10-24T08:36:01.361Z,15.9
2022-10-24T08:37:02.415Z,16
2022-10-24T08:38:02.242Z,15.9
2022-10-24T08:39:02.284Z,16
2022-10-24T08:40:02.120Z,16
2022-10-24T08:41:02.157Z,15.9
2022-10-24T08:42:01.960Z,15.9
2022-10-24T08:43:01.919Z,16
2022-10-24T08:44:01.909Z,15.9
2022-10-24T08:45:01.769Z,16
2022-10-24T08:46:01.682Z,16
2022-10-24T08:47:01.688Z,16
2022-10-24T08:48:01.701Z,16.1
2022-10-24T08:49:01.494Z,16
2022-10-24T08:50:01.496Z,16
2022-10-24T08:51:01.382Z,16
2022-10-24T08:52:01.459Z,16
2022-10-24T08:53:02.413Z,16
2022-10-24T08:54:02.267Z,16
2022-10-24T08:55:04.656Z,15.9
2022-10-24T08:56:01.450Z,16
2022-10-24T08:57:01.457Z,16
2022-10-24T08:58:02.331Z,16
2022-10-24T08:59:02.196Z,16
2022-10-24T09:00:02.249Z,16
2022-10-24T09:01:02.135Z,15.9
2022-10-24T09:02:03.359Z,15.9
2022-10-24T09:03:01.423Z,15.9
2022-10-24T09:04:01.628Z,15.9
2022-10-24T09:05:01.429Z,16
2022-10-24T09:06:01.477Z,16
2022-10-24T09:07:02.413Z,16
2022-10-24T09:08:02.362Z,16
2022-10-24T09:09:02.252Z,16
2022-10-24T09:10:02.142Z,16.1
2022-10-24T09:11:02.173Z,16.1
2022-10-24T09:12:02.036Z,16.1
2022-10-24T09:13:01.973Z,16.2
2022-10-24T09:14:02.019Z,16.3
2022-10-24T09:15:03.044Z,16.4
2022-10-24T09:16:01.867Z,16.4
2022-10-24T09:17:01.496Z,16.4
2022-10-24T09:18:01.509Z,16.4
2022-10-24T09:19:01.356Z,16.4
2022-10-24T09:20:02.393Z,16.5
2022-10-24T09:21:02.235Z,16.4
2022-10-24T09:22:02.279Z,16.5
2022-10-24T09:23:02.133Z,16.5
2022-10-24T09:24:02.198Z,16.5
2022-10-24T09:25:01.993Z,16.4
2022-10-24T09:26:01.979Z,16.4
2022-10-24T09:27:01.986Z,16.5
2022-10-24T09:28:01.777Z,16.4
2022-10-24T09:29:01.735Z,16.4
2022-10-24T09:30:01.771Z,16.3
2022-10-24T09:31:01.566Z,16.3
2022-10-24T09:32:01.567Z,16.3
2022-10-24T09:33:01.633Z,16.2
2022-10-24T09:34:01.392Z,16.3
2022-10-24T09:35:01.398Z,16.3
2022-10-24T09:36:02.353Z,16.3
2022-10-24T09:37:02.222Z,16.3
2022-10-24T09:38:02.187Z,16.4
2022-10-24T09:39:01.984Z,16.4
2022-10-24T09:40:01.876Z,16.6
2022-10-24T09:41:01.883Z,16.6
2022-10-24T09:42:01.685Z,16.6
2022-10-24T09:43:01.742Z,16.7
2022-10-24T09:44:01.587Z,16.9
2022-10-24T09:45:01.571Z,17
2022-10-24T09:46:01.383Z,16.9
2022-10-24T09:47:01.445Z,16.9
2022-10-24T09:48:01.396Z,16.9
2022-10-24T09:49:02.349Z,17
2022-10-24T09:50:02.240Z,16.9
2022-10-24T09:51:02.198Z,17.1
2022-10-24T09:52:02.127Z,17.2
2022-10-24T09:53:02.075Z,17.1
2022-10-24T09:54:01.912Z,17.1
2022-10-24T09:55:01.907Z,17.2
2022-10-24T09:56:01.806Z,17.4
2022-10-24T09:57:01.748Z,17.3
2022-10-24T09:58:01.751Z,17.5
2022-10-24T09:59:01.744Z,17.7
2022-10-24T10:00:01.593Z,17.4
2022-10-24T10:01:01.639Z,17.5
2022-10-24T10:02:02.111Z,17.5
2022-10-24T10:03:01.342Z,17.7
2022-10-24T10:04:06.191Z,17.8
2022-10-24T10:05:01.445Z,17.8
2022-10-24T10:06:01.417Z,17.9
2022-10-24T10:07:01.382Z,17.9
2022-10-24T10:08:02.355Z,18
2022-10-24T10:09:02.275Z,18
2022-10-24T10:10:02.344Z,18.1
2022-10-24T10:11:02.160Z,18.2
2022-10-24T10:12:02.946Z,18.1
2022-10-24T10:13:02.272Z,17.8
2022-10-24T10:14:02.163Z,17.6
2022-10-24T10:15:02.223Z,17.7
2022-10-24T10:16:02.002Z,18
2022-10-24T10:17:01.799Z,18
2022-10-24T10:18:01.752Z,18.3
2022-10-24T10:19:01.594Z,18.5
2022-10-24T10:20:01.598Z,18.6
2022-10-24T10:21:01.458Z,18.7
2022-10-24T10:22:01.423Z,18.9
2022-10-24T10:23:01.356Z,19.2
2022-10-24T10:24:02.332Z,19.5
2022-10-24T10:25:02.308Z,19.7
2022-10-24T10:26:02.312Z,19.5
2022-10-24T10:27:02.227Z,19.4
2022-10-24T10:28:03.003Z,19.6
2022-10-24T10:29:02.119Z,19.9
2022-10-24T10:30:02.093Z,19.6
2022-10-24T10:31:02.003Z,19.8
2022-10-24T10:32:01.989Z,19.4
2022-10-24T10:33:02.091Z,19.6
2022-10-24T10:34:02.126Z,19.2
2022-10-24T10:35:01.874Z,19.5
2022-10-24T10:36:01.837Z,19.9
2022-10-24T10:37:01.776Z,20.1
2022-10-24T10:38:01.726Z,19.8
2022-10-24T10:39:01.650Z,19.8
2022-10-24T10:40:01.544Z,19.7
2022-10-24T10:41:01.471Z,20.1
2022-10-24T10:42:01.423Z,19.9
2022-10-24T10:43:01.340Z,19.8
2022-10-24T10:44:02.280Z,19.9
2022-10-24T10:45:02.243Z,19.5
2022-10-24T10:46:02.148Z,19.6
2022-10-24T10:47:02.257Z,19.4
2022-10-24T10:48:02.185Z,19.4
2022-10-24T10:49:02.320Z,19.7
2022-10-24T10:50:02.249Z,19.7
2022-10-24T10:51:03.303Z,19.9
2022-10-24T10:52:02.096Z,20.1
2022-10-24T10:53:02.048Z,20.2
2022-10-24T10:54:01.973Z,19.6
2022-10-24T10:55:01.921Z,19.7
2022-10-24T10:56:01.860Z,19.7
2022-10-24T10:57:01.921Z,20
2022-10-24T10:58:01.776Z,19.8
2022-10-24T10:59:01.724Z,19.9
2022-10-24T11:00:01.775Z,20.2
2022-10-24T11:01:01.650Z,20.1
2022-10-24T11:02:01.727Z,20.1
2022-10-24T11:03:02.342Z,20.2
2022-10-24T11:04:02.201Z,20.1
2022-10-24T11:05:02.239Z,20.5
2022-10-24T11:06:02.047Z,20.3
2022-10-24T11:07:02.104Z,20.5
2022-10-24T11:08:01.927Z,20.3
2022-10-24T11:09:01.883Z,20.3
2022-10-24T11:10:01.920Z,20.1
2022-10-24T11:11:01.833Z,19.8
2022-10-24T11:12:01.681Z,19.8
2022-10-24T11:13:01.729Z,20.1
2022-10-24T11:14:01.504Z,20.4
2022-10-24T11:15:01.536Z,20.2
2022-10-24T11:16:01.382Z,20.5
2022-10-24T11:17:01.586Z,21.1
2022-10-24T11:18:01.608Z,20.8
2022-10-24T11:19:01.437Z,20.8
2022-10-24T11:20:01.452Z,21
2022-10-24T11:21:02.382Z,21.3
2022-10-24T11:22:02.243Z,21.2
2022-10-24T11:23:02.235Z,21.4
2022-10-24T11:24:02.100Z,22.2
2022-10-24T11:25:02.153Z,21.9
2022-10-24T11:26:01.987Z,22
2022-10-24T11:27:01.896Z,22.5
2022-10-24T11:28:01.937Z,22.3
2022-10-24T11:29:01.779Z,22.3
2022-10-24T11:30:01.720Z,21.9
2022-10-24T11:31:01.709Z,21.9
2022-10-24T11:32:01.482Z,22.3
2022-10-24T11:33:01.505Z,22.5
2022-10-24T11:34:01.471Z,22.4
2022-10-24T11:35:02.405Z,22.9
2022-10-24T11:36:02.250Z,22.6
2022-10-24T11:37:02.311Z,22
2022-10-24T11:38:02.155Z,21.8
2022-10-24T11:39:02.218Z,23
2022-10-24T11:40:02.038Z,23
2022-10-24T11:41:02.361Z,22.3
2022-10-24T11:42:01.355Z,22.1
2022-10-24T11:43:01.848Z,22.7
2022-10-24T11:44:02.413Z,21.9
2022-10-24T11:45:02.305Z,21.8
2022-10-24T11:46:02.324Z,22.3
2022-10-24T11:47:06.304Z,22.4
2022-10-24T11:48:01.386Z,22.4
2022-10-24T11:49:01.441Z,22.7
2022-10-24T11:50:01.354Z,22.1
2022-10-24T11:51:02.415Z,22.2
2022-10-24T11:52:02.235Z,23.1
2022-10-24T11:53:02.249Z,22.8
2022-10-24T11:54:02.126Z,22.9
2022-10-24T11:55:02.212Z,22.9
2022-10-24T11:56:02.007Z,23.2
2022-10-24T11:57:02.088Z,22.9
2022-10-24T11:58:02.048Z,22.9
2022-10-24T11:59:01.970Z,22.9
2022-10-24T12:00:01.997Z,22.6
2022-10-24T12:01:01.798Z,22.5
2022-10-24T12:02:01.819Z,22.7
2022-10-24T12:03:01.945Z,22.5
2022-10-24T12:04:02.048Z,22.2
2022-10-24T12:05:01.975Z,22.5
2022-10-24T12:06:01.996Z,22.7
2022-10-24T12:07:01.797Z,22.7
2022-10-24T12:08:01.843Z,22.4
2022-10-24T12:09:01.707Z,22.7
2022-10-24T12:10:01.656Z,22.5
2022-10-24T12:11:01.669Z,22.7
2022-10-24T12:12:01.460Z,22.9
2022-10-24T12:13:01.481Z,22.5
2022-10-24T12:15:02.271Z,22.9
2022-10-24T12:16:02.329Z,22.7
2022-10-24T12:17:01.998Z,23.3
2022-10-24T12:18:01.985Z,23.2
2022-10-24T12:19:01.873Z,22.6
2022-10-24T12:20:01.877Z,22.1
2022-10-24T12:21:01.831Z,22.5
2022-10-24T12:22:01.688Z,21.8
2022-10-24T12:23:01.732Z,22.3
2022-10-24T12:24:01.560Z,22.7
2022-10-24T12:25:01.528Z,22.8
2022-10-24T12:26:01.429Z,22.8
2022-10-24T12:27:02.435Z,22.8
2022-10-24T12:28:02.265Z,22.8
2022-10-24T12:29:02.324Z,22.9
2022-10-24T12:30:02.154Z,22.8
2022-10-24T12:31:02.165Z,22.9
2022-10-24T12:32:01.830Z,22.4
2022-10-24T12:33:01.799Z,22.3
2022-10-24T12:34:01.807Z,22.6
2022-10-24T12:35:25.601Z,22.5
2022-10-24T12:36:02.303Z,22.8
2022-10-24T12:37:02.348Z,22.4
2022-10-24T12:38:02.189Z,22.9
2022-10-24T12:39:02.225Z,23.4
2022-10-24T12:40:02.122Z,22.9
2022-10-24T12:41:02.169Z,22.7
2022-10-24T12:42:01.962Z,22.4
2022-10-24T12:43:01.935Z,22.4
2022-10-24T12:44:01.873Z,22.1
2022-10-24T12:45:01.762Z,21.6
2022-10-24T12:46:01.694Z,21.8
2022-10-24T12:47:01.719Z,21.7
2022-10-24T12:48:01.731Z,21.4
2022-10-24T12:49:01.620Z,21.4
2022-10-24T12:50:01.648Z,21.8
2022-10-24T12:51:01.441Z,21.4
2022-10-24T12:52:01.487Z,21
2022-10-24T12:53:02.436Z,20.9
2022-10-24T12:54:02.312Z,20.5
2022-10-24T12:55:02.312Z,20.4
2022-10-24T12:56:02.179Z,20.2
2022-10-24T12:57:02.228Z,20.1
2022-10-24T12:58:02.053Z,20.1
2022-10-24T12:59:02.191Z,20.2
2022-10-24T13:00:02.030Z,20
2022-10-24T13:01:02.107Z,20
2022-10-24T13:02:03.405Z,20
2022-10-24T13:03:01.978Z,20.3
2022-10-24T13:04:01.832Z,20.1
2022-10-24T13:05:01.776Z,19.8
2022-10-24T13:06:01.773Z,19.7
2022-10-24T13:07:01.614Z,19.8
2022-10-24T13:08:01.685Z,19.7
2022-10-24T13:09:01.479Z,19.4
2022-10-24T13:10:01.506Z,19.6
2022-10-24T13:11:01.391Z,19.6
2022-10-24T13:12:02.382Z,19.5
2022-10-24T13:13:02.307Z,19.6
2022-10-24T13:14:02.403Z,19.5
2022-10-24T13:15:02.233Z,19.4
2022-10-24T13:16:02.254Z,19.5
2022-10-24T13:17:02.068Z,19.3
2022-10-24T13:18:02.067Z,19.3
2022-10-24T13:19:01.947Z,19.1
2022-10-24T13:20:01.906Z,19
2022-10-24T13:21:01.984Z,19.2
2022-10-24T13:22:01.782Z,19.1
2022-10-24T13:23:01.734Z,19.1
2022-10-24T13:24:02.015Z,19.3
2022-10-24T13:25:01.803Z,19.1
2022-10-24T13:26:01.846Z,19.2
2022-10-24T13:27:01.887Z,19.4
2022-10-24T13:28:01.798Z,19.4
2022-10-24T13:29:01.681Z,19.2
2022-10-24T13:30:01.729Z,19.4
2022-10-24T13:31:01.532Z,19.2
2022-10-24T13:32:01.758Z,19.3
2022-10-24T13:33:01.793Z,19.3